Time;durP1;ratioP1;P1;durP2;ratioP2;P2;SDS_P1;SDS_P2;PMS_P1;PMS_P2;Temp;Humidity;BMP_temperature;BMP_pressure;BME280_temperature;BME280_humidity;BME280_pressure;Samples;Min_cycle;Max_cycle;Signal;HPM_P1;HPM_P2
2022/06/19 00:02:21;;;;;;;13.77;2.88;;;21.90;54.30;;;;;;5034311;28;20041;-62
2022/06/19 00:04:50;;;;;;;7.97;3.15;;;21.80;54.30;;;;;;5039632;28;20032;-61
2022/06/19 00:07:16;;;;;;;7.30;3.15;;;21.80;54.40;;;;;;5050921;28;20029;-62
2022/06/19 00:09:41;;;;;;;7.07;2.60;;;21.70;54.40;;;;;;5046823;28;20516;-62
2022/06/19 00:12:08;;;;;;;10.60;2.75;;;21.60;54.40;;;;;;5044843;28;20033;-62
2022/06/19 00:14:34;;;;;;;10.20;2.80;;;21.60;54.50;;;;;;5049170;28;20037;-62
2022/06/19 00:17:01;;;;;;;10.73;2.88;;;21.50;54.40;;;;;;5042142;28;20091;-61
2022/06/19 00:19:27;;;;;;;8.93;2.67;;;21.50;54.50;;;;;;5046480;28;20060;-61
2022/06/19 00:21:52;;;;;;;10.25;3.13;;;21.50;54.70;;;;;;5044722;28;20030;-60
2022/06/19 00:24:18;;;;;;;7.53;2.80;;;21.40;54.70;;;;;;5049869;28;20084;-62
2022/06/19 00:26:44;;;;;;;8.50;2.78;;;21.30;54.60;;;;;;5044169;28;20085;-62
2022/06/19 00:29:10;;;;;;;14.10;4.35;;;21.30;54.80;;;;;;5050893;28;20029;-61
2022/06/19 00:31:35;;;;;;;13.82;6.20;;;21.30;55.00;;;;;;5035272;28;20038;-62
2022/06/19 00:34:01;;;;;;;18.83;6.43;;;21.20;55.00;;;;;;5041798;28;20029;-62
2022/06/19 00:36:27;;;;;;;15.50;5.10;;;21.20;55.20;;;;;;5044088;28;20025;-62
2022/06/19 00:38:55;;;;;;;15.13;3.72;;;21.10;55.30;;;;;;5044771;28;20040;-62
2022/06/19 00:41:20;;;;;;;11.52;3.70;;;21.10;55.50;;;;;;5031456;28;20105;-62
2022/06/19 00:43:59;;;;;;;10.45;4.72;;;21.00;55.60;;;;;;5049814;28;20045;-61
2022/06/19 00:46:43;;;;;;;13.13;4.75;;;20.90;56.20;;;;;;5053630;28;20026;-62
2022/06/19 00:49:16;;;;;;;17.63;7.47;;;20.90;56.70;;;;;;5046469;28;20101;-61
2022/06/19 00:51:42;;;;;;;20.80;8.32;;;20.90;55.70;;;;;;5032369;28;20032;-61
2022/06/19 00:54:10;;;;;;;18.13;5.72;;;20.80;56.00;;;;;;5054853;28;20037;-62
2022/06/19 00:56:37;;;;;;;18.13;4.40;;;20.80;56.30;;;;;;5045335;28;20035;-62
2022/06/19 00:59:04;;;;;;;16.30;4.00;;;20.70;56.30;;;;;;5047967;28;20026;-63
2022/06/19 01:01:31;;;;;;;10.27;4.68;;;20.70;56.50;;;;;;5057690;28;20036;-62
2022/06/19 01:04:09;;;;;;;15.95;5.13;;;20.70;56.50;;;;;;5046442;28;20044;-62
2022/06/19 01:06:35;;;;;;;18.75;5.53;;;20.60;57.10;;;;;;5038482;28;20025;-62
2022/06/19 01:09:02;;;;;;;17.42;4.43;;;20.60;56.60;;;;;;5048239;28;20036;-62
2022/06/19 01:11:32;;;;;;;14.57;3.83;;;20.60;56.60;;;;;;5052394;28;20033;-62
2022/06/19 01:13:58;;;;;;;14.95;4.20;;;20.50;56.80;;;;;;5056640;28;20033;-61
2022/06/19 01:16:24;;;;;;;9.63;2.92;;;20.50;56.80;;;;;;5046002;28;20037;-62
2022/06/19 01:18:50;;;;;;;14.90;3.55;;;20.50;56.90;;;;;;5052034;28;20026;-61
2022/06/19 01:21:55;;;;;;;9.88;3.20;;;20.40;56.80;;;;;;5047775;28;20040;-63
2022/06/19 01:24:36;;;;;;;7.80;2.58;;;20.40;57.70;;;;;;5022603;28;20494;-62
2022/06/19 01:27:04;;;;;;;16.08;2.85;;;20.40;56.30;;;;;;5051651;28;20025;-61
2022/06/19 01:29:33;;;;;;;10.95;2.72;;;20.30;56.40;;;;;;5043691;28;20029;-61
2022/06/19 01:32:03;;;;;;;10.25;2.78;;;20.20;56.80;;;;;;5048493;28;20085;-62
2022/06/19 01:34:35;;;;;;;8.98;2.80;;;20.20;56.90;;;;;;5044825;28;20038;-62
2022/06/19 01:37:17;;;;;;;8.85;2.63;;;20.20;57.10;;;;;;5043715;28;20030;-62
2022/06/19 01:39:49;;;;;;;11.38;3.63;;;20.10;58.20;;;;;;5048617;28;20132;-62
2022/06/19 01:42:16;;;;;;;11.10;2.53;;;20.10;57.30;;;;;;5043639;28;20068;-62
2022/06/19 01:44:44;;;;;;;11.80;3.38;;;20.10;57.10;;;;;;5068231;28;20080;-62
2022/06/19 01:47:10;;;;;;;10.13;2.63;;;20.00;57.20;;;;;;5065561;28;20061;-61
2022/06/19 01:49:38;;;;;;;11.32;2.67;;;20.00;57.10;;;;;;5061487;28;20025;-62
2022/06/19 01:52:05;;;;;;;5.63;2.60;;;19.90;57.10;;;;;;5066770;28;20100;-63
2022/06/19 01:54:36;;;;;;;10.52;3.05;;;19.90;57.10;;;;;;5064248;28;20053;-63
2022/06/19 01:57:05;;;;;;;11.68;2.70;;;19.90;57.30;;;;;;5055857;28;20095;-63
2022/06/19 01:59:33;;;;;;;12.20;2.75;;;19.80;57.30;;;;;;5065546;28;20029;-61
2022/06/19 02:02:01;;;;;;;13.00;3.22;;;19.80;57.10;;;;;;5044576;28;20021;-62
2022/06/19 02:04:27;;;;;;;8.55;2.83;;;19.70;57.20;;;;;;5063771;28;20048;-62
2022/06/19 02:06:58;;;;;;;11.25;3.25;;;19.70;57.40;;;;;;5059936;28;20037;-61
2022/06/19 02:09:24;;;;;;;6.40;2.65;;;19.60;57.90;;;;;;5063632;28;20088;-62
2022/06/19 02:11:50;;;;;;;8.48;3.00;;;19.60;57.70;;;;;;5064864;28;20025;-62
2022/06/19 02:14:17;;;;;;;11.90;3.22;;;19.50;57.60;;;;;;5066378;28;20493;-62
2022/06/19 02:16:46;;;;;;;7.25;3.13;;;19.50;57.80;;;;;;5065389;28;20052;-61
2022/06/19 02:19:12;;;;;;;11.23;2.67;;;19.50;57.90;;;;;;5064924;28;20021;-62
2022/06/19 02:21:47;;;;;;;8.60;2.67;;;19.40;58.00;;;;;;5066168;28;20036;-62
2022/06/19 02:24:16;;;;;;;7.30;2.55;;;19.40;58.60;;;;;;5064746;28;20037;-61
2022/06/19 02:26:43;;;;;;;11.70;2.42;;;19.40;58.20;;;;;;5061896;28;20028;-61
2022/06/19 02:29:11;;;;;;;15.13;3.47;;;19.40;58.10;;;;;;5063036;28;20074;-62
2022/06/19 02:31:40;;;;;;;10.75;2.35;;;19.40;58.40;;;;;;5065132;28;20414;-61
2022/06/19 02:34:19;;;;;;;9.15;2.92;;;19.30;58.30;;;;;;5063779;28;20063;-61
2022/06/19 02:37:14;;;;;;;11.55;3.30;;;19.30;59.10;;;;;;5054588;28;20021;-62
2022/06/19 02:39:55;;;;;;;13.40;2.90;;;19.30;59.50;;;;;;5046983;28;20382;-62
2022/06/19 02:42:22;;;;;;;10.68;2.63;;;19.30;59.10;;;;;;5062787;28;20050;-61
2022/06/19 02:45:01;;;;;;;7.93;2.83;;;19.30;58.30;;;;;;5036085;28;20041;-60
2022/06/19 02:47:30;;;;;;;7.50;2.85;;;19.30;59.20;;;;;;5047264;28;20225;-62
2022/06/19 02:49:56;;;;;;;11.57;2.83;;;19.20;58.60;;;;;;5045109;28;20041;-62
2022/06/19 02:52:22;;;;;;;11.90;2.80;;;19.20;58.60;;;;;;5041086;28;20092;-62
2022/06/19 02:54:48;;;;;;;9.93;2.78;;;19.20;58.60;;;;;;5044413;28;20064;-60
2022/06/19 02:57:16;;;;;;;13.57;2.75;;;19.20;58.60;;;;;;5053153;28;20040;-62
2022/06/19 02:59:41;;;;;;;8.88;3.15;;;19.10;58.60;;;;;;5036326;28;20026;-61
2022/06/19 03:02:08;;;;;;;9.07;2.90;;;19.10;58.70;;;;;;5050793;28;20036;-63
2022/06/19 03:04:39;;;;;;;9.45;3.22;;;19.10;58.70;;;;;;5069409;28;20024;-62
2022/06/19 03:07:06;;;;;;;11.90;3.55;;;19.10;59.10;;;;;;5046341;28;20037;-61
2022/06/19 03:09:31;;;;;;;13.13;3.40;;;19.10;58.90;;;;;;5053031;28;20050;-62
2022/06/19 03:11:57;;;;;;;14.02;3.95;;;19.00;58.90;;;;;;5044868;28;20029;-62
2022/06/19 03:14:24;;;;;;;9.25;3.10;;;19.00;59.00;;;;;;5063023;28;20033;-61
2022/06/19 03:16:50;;;;;;;8.07;2.80;;;19.00;59.00;;;;;;5064789;28;20021;-63
2022/06/19 03:19:16;;;;;;;10.20;2.97;;;19.00;59.70;;;;;;5065579;28;20029;-62
2022/06/19 03:21:42;;;;;;;10.35;2.70;;;19.00;59.30;;;;;;5057623;28;20466;-62
2022/06/19 03:24:08;;;;;;;7.82;2.78;;;19.00;59.50;;;;;;5058356;28;20040;-62
2022/06/19 03:26:34;;;;;;;11.20;2.85;;;19.00;59.50;;;;;;4996953;28;20025;-59
2022/06/19 03:28:59;;;;;;;9.25;2.90;;;18.90;59.60;;;;;;5059880;28;20051;-62
2022/06/19 03:31:27;;;;;;;12.02;3.20;;;18.90;59.70;;;;;;5070040;28;20394;-62
2022/06/19 03:33:53;;;;;;;9.43;3.20;;;18.90;59.80;;;;;;5060825;28;20055;-62
2022/06/19 03:36:19;;;;;;;7.32;2.70;;;18.90;59.80;;;;;;5075959;28;20025;-62
2022/06/19 03:38:45;;;;;;;10.95;3.00;;;18.90;59.90;;;;;;5046786;28;20418;-61
2022/06/19 03:41:12;;;;;;;11.20;2.90;;;18.90;59.90;;;;;;5065258;28;20056;-62
2022/06/19 03:43:37;;;;;;;5.65;2.53;;;18.90;59.90;;;;;;5063572;28;20056;-63
2022/06/19 03:46:14;;;;;;;9.02;3.00;;;18.90;60.10;;;;;;5065177;28;20037;-62
2022/06/19 03:48:41;;;;;;;10.00;2.97;;;18.90;60.90;;;;;;5058076;28;20033;-62
2022/06/19 03:51:07;;;;;;;7.68;2.83;;;18.90;60.10;;;;;;5046580;28;20052;-61
2022/06/19 03:53:32;;;;;;;10.25;2.40;;;18.90;60.10;;;;;;5063298;28;20025;-62
2022/06/19 03:55:58;;;;;;;8.10;2.70;;;18.90;60.10;;;;;;5065778;28;20035;-62
2022/06/19 03:58:45;;;;;;;7.07;2.80;;;18.90;60.00;;;;;;5072324;28;20043;-62
2022/06/19 04:01:10;;;;;;;5.75;2.78;;;18.90;60.00;;;;;;5054828;28;20028;-61
2022/06/19 04:03:35;;;;;;;7.43;2.60;;;19.00;60.20;;;;;;5061298;28;20025;-60
2022/06/19 04:06:01;;;;;;;6.68;2.13;;;19.00;60.30;;;;;;5064286;28;20021;-61
2022/06/19 04:08:27;;;;;;;6.72;2.67;;;19.00;60.20;;;;;;5062772;28;20040;-61
2022/06/19 04:10:52;;;;;;;7.78;2.75;;;19.10;60.00;;;;;;5063486;28;20033;-61
2022/06/19 04:13:18;;;;;;;10.52;2.85;;;19.10;60.30;;;;;;5041766;28;20096;-62
2022/06/19 04:15:44;;;;;;;9.68;2.58;;;19.20;60.20;;;;;;5069496;28;20052;-61
2022/06/19 04:18:09;;;;;;;7.10;3.08;;;19.20;60.30;;;;;;5044541;28;20083;-63
2022/06/19 04:20:35;;;;;;;8.63;2.65;;;19.30;60.20;;;;;;5065630;28;20029;-62
2022/06/19 04:23:01;;;;;;;8.27;3.47;;;19.30;60.10;;;;;;5060834;28;21496;-61
2022/06/19 04:25:26;;;;;;;5.28;2.42;;;19.40;60.40;;;;;;5060710;28;20060;-62
2022/06/19 04:27:52;;;;;;;6.03;2.15;;;19.50;60.20;;;;;;5061518;28;20087;-62
2022/06/19 04:30:17;;;;;;;4.13;2.28;;;19.60;60.20;;;;;;5059588;28;20033;-62
2022/06/19 04:32:43;;;;;;;6.18;2.28;;;19.70;60.50;;;;;;5068200;28;20024;-60
2022/06/19 04:35:09;;;;;;;6.22;2.90;;;19.70;60.40;;;;;;5063686;28;20041;-62
2022/06/19 04:37:35;;;;;;;7.10;2.92;;;19.80;60.50;;;;;;5066845;28;20028;-62
2022/06/19 04:40:01;;;;;;;10.07;2.65;;;19.90;60.50;;;;;;5065756;28;20040;-62
2022/06/19 04:42:26;;;;;;;9.00;2.90;;;19.90;60.40;;;;;;5054409;28;20049;-62
2022/06/19 04:44:52;;;;;;;6.13;2.65;;;20.00;60.20;;;;;;5056704;28;20101;-61
2022/06/19 04:47:17;;;;;;;6.80;2.42;;;20.10;60.20;;;;;;5053838;28;20029;-62
2022/06/19 04:49:43;;;;;;;5.88;2.63;;;20.20;60.30;;;;;;5052237;28;20033;-62
2022/06/19 04:52:09;;;;;;;8.95;3.05;;;20.30;60.10;;;;;;5043388;28;20038;-62
2022/06/19 04:54:34;;;;;;;11.18;2.78;;;20.40;60.00;;;;;;5046915;28;20033;-63
2022/06/19 04:57:00;;;;;;;6.93;2.80;;;20.40;60.60;;;;;;5062649;28;20089;-62
2022/06/19 04:59:26;;;;;;;8.15;2.88;;;20.50;59.90;;;;;;5049156;28;20032;-60
2022/06/19 05:01:51;;;;;;;4.65;2.47;;;20.60;59.60;;;;;;5044563;28;20029;-62
2022/06/19 05:04:17;;;;;;;12.00;3.08;;;20.70;59.60;;;;;;5049032;28;20057;-62
2022/06/19 05:06:43;;;;;;;9.45;2.90;;;20.90;59.60;;;;;;5058964;28;20028;-61
2022/06/19 05:09:08;;;;;;;9.82;2.53;;;20.90;59.50;;;;;;5050417;28;20035;-63
2022/06/19 05:11:34;;;;;;;7.93;2.40;;;21.10;59.60;;;;;;5044596;28;20391;-62
2022/06/19 05:14:01;;;;;;;7.70;2.67;;;21.20;59.40;;;;;;5043384;28;20032;-62
2022/06/19 05:16:27;;;;;;;5.45;2.45;;;21.30;59.40;;;;;;5061165;28;20029;-60
2022/06/19 05:18:55;;;;;;;9.40;2.60;;;21.40;59.40;;;;;;5048989;28;20036;-61
2022/06/19 05:21:24;;;;;;;6.50;2.30;;;21.50;59.30;;;;;;5056772;28;20029;-61
2022/06/19 05:23:52;;;;;;;10.50;2.88;;;21.70;59.20;;;;;;5048228;28;20083;-63
2022/06/19 05:26:21;;;;;;;10.90;3.22;;;21.80;59.00;;;;;;5052824;28;20057;-62
2022/06/19 05:28:49;;;;;;;9.25;3.65;;;21.90;59.00;;;;;;5047046;28;20028;-62
2022/06/19 05:31:15;;;;;;;9.30;2.97;;;22.00;59.00;;;;;;5074148;28;20035;-61
2022/06/19 05:33:41;;;;;;;6.75;3.35;;;22.10;58.90;;;;;;5064145;28;20033;-61
2022/06/19 05:36:07;;;;;;;9.68;3.40;;;22.20;58.90;;;;;;5068519;28;20037;-62
2022/06/19 05:38:33;;;;;;;9.55;2.97;;;22.40;58.60;;;;;;5053292;28;20029;-60
2022/06/19 05:41:00;;;;;;;11.07;3.35;;;22.50;58.40;;;;;;5050323;28;20052;-63
2022/06/19 05:43:29;;;;;;;11.77;3.20;;;22.60;58.30;;;;;;5054528;28;20069;-60
2022/06/19 05:45:57;;;;;;;14.27;3.58;;;22.70;58.00;;;;;;5053681;28;20041;-61
2022/06/19 05:48:25;;;;;;;7.15;2.83;;;22.90;57.90;;;;;;5032247;28;20044;-61
2022/06/19 05:51:04;;;;;;;10.50;2.90;;;23.00;57.90;;;;;;5045892;28;20033;-61
2022/06/19 05:53:33;;;;;;;7.70;2.45;;;23.20;57.90;;;;;;5044495;28;20102;-62
2022/06/19 05:55:59;;;;;;;10.20;3.03;;;23.30;57.50;;;;;;5050591;28;20471;-62
2022/06/19 05:58:24;;;;;;;4.75;2.58;;;23.50;57.50;;;;;;5027245;28;20816;-63
2022/06/19 06:00:50;;;;;;;11.77;3.28;;;23.60;57.30;;;;;;5047378;28;20029;-61
2022/06/19 06:03:18;;;;;;;9.40;3.47;;;23.70;57.20;;;;;;5027060;28;20407;-60
2022/06/19 06:05:44;;;;;;;9.35;2.83;;;23.90;57.00;;;;;;5050711;28;20048;-61
2022/06/19 06:08:11;;;;;;;13.13;3.20;;;24.00;56.50;;;;;;5037196;28;20036;-61
2022/06/19 06:10:37;;;;;;;8.80;2.88;;;24.20;56.50;;;;;;5046511;28;20022;-62
2022/06/19 06:13:02;;;;;;;10.35;2.60;;;24.40;56.10;;;;;;5046466;28;20032;-62
2022/06/19 06:15:28;;;;;;;9.07;3.03;;;24.50;55.90;;;;;;5045298;28;20029;-61
2022/06/19 06:17:54;;;;;;;8.13;2.75;;;24.60;55.70;;;;;;5045301;28;20040;-63
2022/06/19 06:20:19;;;;;;;6.88;2.60;;;24.80;55.30;;;;;;5047151;28;20120;-62
2022/06/19 06:22:45;;;;;;;8.05;2.67;;;24.90;54.90;;;;;;5047814;28;20024;-62
2022/06/19 06:25:12;;;;;;;8.32;2.20;;;25.00;54.60;;;;;;5043126;28;20049;-61
2022/06/19 06:27:38;;;;;;;6.15;2.80;;;25.10;54.20;;;;;;4946902;28;20063;-62
2022/06/19 06:30:04;;;;;;;5.78;2.63;;;25.30;54.00;;;;;;5047649;28;20435;-62
2022/06/19 06:32:30;;;;;;;7.72;2.40;;;25.30;53.60;;;;;;5044008;28;20068;-62
2022/06/19 06:34:56;;;;;;;16.42;3.08;;;25.50;54.00;;;;;;5046106;28;20037;-63
2022/06/19 06:37:22;;;;;;;5.88;2.42;;;25.70;53.80;;;;;;5047459;28;20107;-61
2022/06/19 06:39:48;;;;;;;12.40;3.20;;;25.80;53.60;;;;;;5044259;28;20033;-61
2022/06/19 06:42:14;;;;;;;9.90;2.72;;;25.90;53.70;;;;;;5039784;28;20030;-61
2022/06/19 06:44:40;;;;;;;10.15;2.70;;;26.10;53.50;;;;;;5026321;28;20033;-63
2022/06/19 06:47:05;;;;;;;4.90;2.47;;;26.20;53.10;;;;;;5040959;28;20025;-63
2022/06/19 06:49:31;;;;;;;11.48;2.83;;;26.40;52.80;;;;;;5046042;28;20490;-62
2022/06/19 06:51:57;;;;;;;11.15;2.13;;;26.50;52.30;;;;;;5046273;28;20043;-61
2022/06/19 06:54:22;;;;;;;7.13;2.30;;;26.60;52.20;;;;;;5040128;28;20049;-63
2022/06/19 06:56:48;;;;;;;9.77;2.95;;;26.80;51.90;;;;;;5042285;28;20025;-62
2022/06/19 06:59:14;;;;;;;7.07;2.20;;;26.90;51.30;;;;;;5042185;28;20033;-62
2022/06/19 07:01:40;;;;;;;13.75;2.70;;;27.10;51.10;;;;;;5042821;28;20021;-62
2022/06/19 07:04:06;;;;;;;14.48;3.20;;;27.20;51.20;;;;;;5045637;28;20044;-62
2022/06/19 07:06:33;;;;;;;10.40;2.55;;;27.40;50.80;;;;;;5047592;28;20033;-62
2022/06/19 07:09:00;;;;;;;12.52;2.80;;;27.50;50.50;;;;;;5053571;28;20435;-61
2022/06/19 07:11:39;;;;;;;9.90;2.80;;;27.70;50.30;;;;;;5045496;28;20033;-62
2022/06/19 07:14:05;;;;;;;12.32;2.60;;;27.80;50.00;;;;;;5050400;28;20038;-62
2022/06/19 07:16:31;;;;;;;12.23;2.85;;;28.00;50.20;;;;;;5043662;28;20031;-62
2022/06/19 07:18:56;;;;;;;9.38;2.88;;;28.20;49.50;;;;;;5046514;28;20407;-62
2022/06/19 07:21:22;;;;;;;19.27;3.25;;;28.30;49.60;;;;;;5050945;28;20029;-63
2022/06/19 07:23:48;;;;;;;12.70;2.60;;;28.40;49.30;;;;;;5058244;28;20040;-61
2022/06/19 07:26:16;;;;;;;14.40;2.85;;;28.50;48.80;;;;;;5026233;28;20045;-61
2022/06/19 07:28:42;;;;;;;8.18;2.75;;;28.70;48.70;;;;;;5042896;28;20629;-61
2022/06/19 07:31:08;;;;;;;12.48;2.85;;;28.90;48.40;;;;;;5042086;28;20107;-61
2022/06/19 07:33:35;;;;;;;13.82;2.95;;;29.00;48.20;;;;;;5041444;28;20033;-64
2022/06/19 07:36:02;;;;;;;11.65;2.50;;;29.20;48.00;;;;;;5046360;28;20041;-62
2022/06/19 07:38:27;;;;;;;6.88;2.28;;;29.30;47.40;;;;;;5047637;28;20072;-63
2022/06/19 07:40:53;;;;;;;13.07;3.00;;;29.50;47.30;;;;;;5041304;28;20391;-62
2022/06/19 07:43:19;;;;;;;12.75;2.55;;;29.60;47.10;;;;;;5049454;28;20059;-62
2022/06/19 07:45:44;;;;;;;12.15;2.97;;;29.70;47.10;;;;;;5062202;28;20028;-62
2022/06/19 07:50:55;;;;;;;13.60;3.17;;;30.00;46.90;;;;;;5060880;28;20028;-62
2022/06/19 07:53:21;;;;;;;8.65;2.65;;;30.10;46.50;;;;;;5065912;28;20063;-64
2022/06/19 07:55:47;;;;;;;10.27;3.00;;;30.20;46.50;;;;;;5062421;28;20244;-62
2022/06/19 07:58:13;;;;;;;11.52;2.88;;;30.40;46.50;;;;;;5063464;28;20021;-62
2022/06/19 08:00:39;;;;;;;8.57;2.45;;;30.50;46.30;;;;;;5057103;28;20637;-63
2022/06/19 08:03:05;;;;;;;14.63;2.80;;;30.60;46.20;;;;;;5064164;28;20363;-62
2022/06/19 08:05:36;;;;;;;12.75;3.38;;;30.80;46.00;;;;;;5062191;28;20056;-64
2022/06/19 08:08:04;;;;;;;13.23;3.10;;;30.90;46.30;;;;;;5065326;28;20056;-61
2022/06/19 08:10:38;;;;;;;10.48;2.58;;;31.00;46.10;;;;;;5056999;28;20088;-62
2022/06/19 08:13:04;;;;;;;15.07;3.45;;;31.10;45.90;;;;;;5060843;28;20020;-62
2022/06/19 08:15:32;;;;;;;10.15;2.67;;;31.30;46.30;;;;;;5062650;28;20036;-62
2022/06/19 08:17:57;;;;;;;10.20;3.55;;;31.40;45.50;;;;;;5062710;28;20021;-62
2022/06/19 08:20:24;;;;;;;9.90;2.65;;;31.60;45.50;;;;;;5065050;28;20051;-62
2022/06/19 08:22:50;;;;;;;9.65;3.00;;;31.60;45.20;;;;;;5041552;28;20401;-62
2022/06/19 08:25:17;;;;;;;8.30;2.60;;;31.80;45.00;;;;;;5059747;28;20053;-62
2022/06/19 08:27:47;;;;;;;15.52;3.85;;;31.80;44.80;;;;;;5070660;28;20081;-62
2022/06/19 08:30:16;;;;;;;13.90;3.80;;;32.00;44.60;;;;;;5069553;28;20029;-62
2022/06/19 08:32:42;;;;;;;11.80;3.08;;;32.10;44.20;;;;;;5059451;28;20048;-63
2022/06/19 08:35:08;;;;;;;9.00;2.83;;;32.20;44.20;;;;;;5061192;28;20041;-63
2022/06/19 08:37:35;;;;;;;14.80;3.38;;;32.30;44.20;;;;;;5060524;28;20469;-62
2022/06/19 08:40:07;;;;;;;11.77;2.85;;;32.40;44.00;;;;;;5062675;28;20021;-61
2022/06/19 08:43:03;;;;;;;10.85;3.22;;;32.50;43.90;;;;;;5057468;28;20499;-62
2022/06/19 08:45:50;;;;;;;8.93;2.70;;;32.60;42.90;;;;;;5049832;28;21080;-61
2022/06/19 08:48:31;;;;;;;10.43;3.40;;;32.70;42.70;;;;;;5045200;28;20033;-62
2022/06/19 08:51:17;;;;;;;14.57;2.97;;;32.80;42.40;;;;;;5048245;28;20021;-62
2022/06/19 08:53:54;;;;;;;14.98;3.00;;;32.90;42.70;;;;;;5060946;28;20067;-63
2022/06/19 08:56:36;;;;;;;11.27;3.50;;;32.90;41.90;;;;;;5054319;28;20406;-60
2022/06/19 08:59:34;;;;;;;13.20;2.95;;;33.00;42.00;;;;;;5054334;28;20205;-62
2022/06/19 09:02:28;;;;;;;16.48;2.78;;;33.10;42.40;;;;;;5063247;28;20021;-61
2022/06/19 09:08:05;;;;;;;10.23;2.97;;;33.30;41.30;;;;;;5062118;28;20039;-61
2022/06/19 09:10:52;;;;;;;15.00;2.90;;;33.40;41.90;;;;;;5063778;28;20056;-62
2022/06/19 09:13:29;;;;;;;13.98;3.20;;;33.50;40.70;;;;;;5068789;28;20029;-61
2022/06/19 09:16:07;;;;;;;11.70;3.15;;;33.60;41.30;;;;;;5063417;28;20025;-62
2022/06/19 09:18:55;;;;;;;8.88;2.67;;;33.70;41.00;;;;;;5070964;28;20115;-63
2022/06/19 09:21:26;;;;;;;11.05;3.20;;;33.80;41.50;;;;;;5058007;28;20381;-62
2022/06/19 09:24:11;;;;;;;10.77;3.10;;;34.00;41.30;;;;;;5064544;28;20024;-62
2022/06/19 09:26:40;;;;;;;14.05;3.78;;;34.10;40.40;;;;;;5063438;28;20103;-61
2022/06/19 09:29:21;;;;;;;13.52;3.90;;;34.20;39.80;;;;;;5060153;28;20025;-61
2022/06/19 09:31:53;;;;;;;8.77;3.58;;;34.30;39.80;;;;;;5045628;28;20032;-63
2022/06/19 09:34:44;;;;;;;11.30;3.15;;;34.40;39.70;;;;;;5048585;28;20091;-61
2022/06/19 09:37:18;;;;;;;9.15;3.13;;;34.50;39.20;;;;;;5054327;28;20063;-61
2022/06/19 09:39:50;;;;;;;8.25;2.78;;;34.60;39.60;;;;;;5067761;28;20021;-63
2022/06/19 09:42:39;;;;;;;12.40;3.13;;;34.70;39.70;;;;;;5056354;28;20848;-60
2022/06/19 09:45:24;;;;;;;16.45;3.17;;;34.80;38.90;;;;;;5051686;28;20020;-60
2022/06/19 09:48:11;;;;;;;14.75;2.83;;;35.00;40.00;;;;;;5064551;28;20060;-63
2022/06/19 09:50:45;;;;;;;22.77;3.30;;;35.10;38.90;;;;;;5058733;28;20481;-62
2022/06/19 09:53:20;;;;;;;16.75;3.20;;;35.20;38.80;;;;;;5060979;28;20108;-61
2022/06/19 09:55:49;;;;;;;13.00;3.90;;;35.30;38.40;;;;;;5065494;28;20092;-62
2022/06/19 09:58:32;;;;;;;16.52;3.38;;;35.40;38.40;;;;;;5046771;28;20182;-62
2022/06/19 10:00:59;;;;;;;16.93;3.87;;;35.50;38.10;;;;;;5049427;28;20064;-62
2022/06/19 10:03:33;;;;;;;8.93;3.33;;;35.60;38.40;;;;;;5065209;28;20065;-61
2022/06/19 10:06:02;;;;;;;12.50;3.33;;;35.70;38.10;;;;;;5065676;28;20049;-63
2022/06/19 10:08:33;;;;;;;9.95;3.30;;;35.70;37.50;;;;;;5060543;28;20017;-62
2022/06/19 10:11:14;;;;;;;10.38;3.33;;;35.80;37.20;;;;;;5067701;28;20032;-62
2022/06/19 10:13:48;;;;;;;18.00;3.63;;;35.90;37.90;;;;;;5060766;28;20044;-63
2022/06/19 10:16:20;;;;;;;11.68;3.33;;;36.00;37.10;;;;;;5061738;28;20025;-61
2022/06/19 10:18:51;;;;;;;9.88;3.63;;;36.10;37.30;;;;;;5047255;28;20029;-63
2022/06/19 10:24:19;;;;;;;9.27;3.08;;;36.20;36.00;;;;;;5056958;28;20071;-63
2022/06/19 10:26:45;;;;;;;20.15;3.85;;;36.30;36.30;;;;;;5043695;28;20032;-62
2022/06/19 10:29:19;;;;;;;10.57;3.22;;;36.30;35.90;;;;;;5047313;28;20063;-62
2022/06/19 10:32:11;;;;;;;15.23;4.85;;;36.40;36.80;;;;;;5066703;28;20033;-62
2022/06/19 10:34:58;;;;;;;15.38;3.55;;;36.40;37.20;;;;;;5063260;28;20033;-61
2022/06/19 10:38:03;;;;;;;17.48;4.25;;;36.50;36.20;;;;;;5057567;28;20548;-62
2022/06/19 10:40:58;;;;;;;11.38;4.03;;;36.50;37.10;;;;;;5072035;28;20017;-61
2022/06/19 10:43:44;;;;;;;12.20;4.03;;;36.60;36.70;;;;;;5061649;28;20110;-61
2022/06/19 10:46:13;;;;;;;15.77;4.00;;;36.70;36.60;;;;;;5062135;28;20025;-62
2022/06/19 10:48:42;;;;;;;18.95;4.53;;;36.80;36.00;;;;;;5068560;28;20028;-62
2022/06/19 10:51:24;;;;;;;19.05;4.18;;;36.90;35.30;;;;;;5071779;28;20037;-61
2022/06/19 10:54:23;;;;;;;12.50;4.97;;;37.00;33.90;;;;;;5064518;28;20017;-62
2022/06/19 10:57:34;;;;;;;23.65;4.22;;;37.00;32.70;;;;;;5057308;28;20048;-62
2022/06/19 11:00:00;;;;;;;16.17;3.53;;;37.00;33.70;;;;;;5064118;28;20120;-61
2022/06/19 11:05:26;;;;;;;12.77;4.35;;;37.20;33.70;;;;;;5060152;28;20063;-62
2022/06/19 11:07:51;;;;;;;12.70;4.28;;;37.20;32.10;;;;;;5045608;28;20024;-63
2022/06/19 11:10:26;;;;;;;12.93;4.75;;;37.30;32.00;;;;;;5062579;28;20090;-62
2022/06/19 11:12:58;;;;;;;16.60;4.82;;;37.10;30.90;;;;;;5054371;28;20021;-63
2022/06/19 11:15:36;;;;;;;12.02;4.38;;;37.10;30.80;;;;;;5056748;28;20072;-62
2022/06/19 11:18:21;;;;;;;8.73;4.53;;;37.00;31.00;;;;;;5065881;28;20029;-63
2022/06/19 11:21:12;;;;;;;12.85;4.40;;;37.00;30.70;;;;;;5064468;28;20100;-63
2022/06/19 11:23:41;;;;;;;13.85;4.88;;;37.00;31.70;;;;;;5032716;28;20037;-62
2022/06/19 11:26:42;;;;;;;10.05;4.57;;;37.00;31.70;;;;;;5063037;28;20065;-61
2022/06/19 11:29:17;;;;;;;19.88;4.78;;;37.00;31.50;;;;;;5044631;28;20554;-61
2022/06/19 11:32:10;;;;;;;16.85;4.82;;;37.10;30.40;;;;;;5064277;28;20025;-62
2022/06/19 11:34:44;;;;;;;7.77;4.40;;;37.20;31.00;;;;;;5059373;28;20044;-62
2022/06/19 11:37:21;;;;;;;16.15;5.72;;;37.20;31.00;;;;;;5045413;28;20469;-61
2022/06/19 11:39:59;;;;;;;14.82;3.97;;;37.20;29.60;;;;;;5044891;28;20036;-62
2022/06/19 11:42:38;;;;;;;12.77;4.38;;;37.20;29.90;;;;;;5043489;28;20413;-62
2022/06/19 11:45:13;;;;;;;15.05;5.03;;;37.10;30.30;;;;;;5072508;28;20028;-62
2022/06/19 11:47:46;;;;;;;11.95;4.20;;;37.00;31.40;;;;;;5046131;28;20044;-62
2022/06/19 11:50:17;;;;;;;14.18;4.45;;;37.00;31.10;;;;;;5068831;28;20021;-61
2022/06/19 11:53:06;;;;;;;10.65;4.45;;;37.00;32.00;;;;;;5069803;28;20021;-62
2022/06/19 11:55:38;;;;;;;11.45;4.10;;;37.10;31.10;;;;;;5062754;28;20073;-62
2022/06/19 11:58:30;;;;;;;10.88;4.30;;;37.20;30.90;;;;;;5050805;28;20032;-62
2022/06/19 12:01:11;;;;;;;12.45;4.50;;;37.30;31.20;;;;;;5064079;28;20032;-62
2022/06/19 12:03:55;;;;;;;16.10;4.47;;;37.40;31.10;;;;;;5055503;28;20033;-62
2022/06/19 12:06:41;;;;;;;13.48;4.40;;;37.50;30.90;;;;;;5063707;28;20060;-62
2022/06/19 12:09:19;;;;;;;17.70;4.57;;;37.60;30.60;;;;;;5063311;28;20017;-61
2022/06/19 12:11:59;;;;;;;11.70;4.82;;;37.80;31.40;;;;;;5067432;28;20689;-61
2022/06/19 12:14:56;;;;;;;21.48;4.95;;;37.90;30.40;;;;;;5063471;28;20163;-62
2022/06/19 12:17:38;;;;;;;11.07;4.28;;;38.10;30.10;;;;;;5062984;28;20029;-60
2022/06/19 12:20:05;;;;;;;11.73;5.07;;;38.20;30.40;;;;;;5066683;28;20465;-61
2022/06/19 12:22:36;;;;;;;10.50;4.93;;;38.30;30.30;;;;;;5077928;28;20033;-62
2022/06/19 12:25:11;;;;;;;15.95;4.68;;;38.40;30.10;;;;;;5059438;28;20067;-61
2022/06/19 12:28:04;;;;;;;14.88;5.10;;;38.50;29.00;;;;;;5061872;28;20036;-61
2022/06/19 12:30:54;;;;;;;14.47;5.47;;;38.50;29.10;;;;;;4977537;28;20027;-61
2022/06/19 12:33:45;;;;;;;15.63;5.05;;;38.50;29.40;;;;;;4963826;28;20500;-61
2022/06/19 12:36:17;;;;;;;14.75;5.00;;;38.50;29.20;;;;;;4984455;28;20045;-61
2022/06/19 12:38:43;;;;;;;12.75;5.15;;;38.60;29.00;;;;;;4982388;28;20023;-62
2022/06/19 12:41:12;;;;;;;12.63;5.05;;;38.50;29.10;;;;;;4994540;28;20038;-61
2022/06/19 12:43:51;;;;;;;16.02;5.63;;;38.50;29.20;;;;;;4988335;28;20131;-62
2022/06/19 12:46:53;;;;;;;14.02;4.63;;;38.50;28.80;;;;;;4988615;28;20027;-61
2022/06/19 12:49:28;;;;;;;13.80;5.22;;;38.60;30.00;;;;;;4980065;28;20094;-61
2022/06/19 12:52:03;;;;;;;16.17;5.18;;;38.70;29.20;;;;;;4984274;28;20037;-62
2022/06/19 12:54:53;;;;;;;12.98;6.15;;;38.80;28.60;;;;;;4973655;28;20053;-61
2022/06/19 12:57:39;;;;;;;13.20;5.20;;;38.70;28.60;;;;;;4985771;28;20038;-61
2022/06/19 13:00:29;;;;;;;15.50;5.60;;;38.60;28.70;;;;;;4989651;28;20531;-60
2022/06/19 13:03:36;;;;;;;14.80;5.95;;;38.50;28.80;;;;;;4987170;28;20101;-60
2022/06/19 13:06:19;;;;;;;13.35;4.60;;;38.50;29.10;;;;;;4986423;28;20038;-61
2022/06/19 13:09:00;;;;;;;10.20;4.35;;;38.50;28.90;;;;;;5071183;28;20108;-62
2022/06/19 13:11:37;;;;;;;14.70;4.28;;;38.50;29.30;;;;;;5055381;28;20064;-61
2022/06/19 13:14:37;;;;;;;13.77;4.40;;;38.50;29.40;;;;;;5067131;28;20044;-62
2022/06/19 13:17:21;;;;;;;9.20;4.00;;;38.40;28.90;;;;;;5062420;28;20017;-62